createdAt,value
2022-08-26T00:01:44.034Z,101582.84
2022-08-26T00:05:47.989Z,101592.84
2022-08-26T00:09:50.049Z,101580.34
2022-08-26T00:13:51.835Z,101589.09
2022-08-26T00:17:54.953Z,101577.84
2022-08-26T00:21:56.636Z,101582.41
2022-08-26T00:25:58.660Z,101573.69
2022-08-26T00:30:01.678Z,101579.53
2022-08-26T00:34:03.337Z,101582.47
2022-08-26T00:38:05.682Z,101584.53
2022-08-26T00:42:09.415Z,101569.50
2022-08-26T00:46:33.540Z,101574.31
2022-08-26T00:50:42.714Z,101573.28
2022-08-26T00:54:58.549Z,101574.31
2022-08-26T00:59:05.326Z,101587.88
2022-08-26T01:03:12.610Z,101573.69
2022-08-26T01:07:15.668Z,101577.47
2022-08-26T01:11:19.521Z,101595.81
2022-08-26T01:15:28.034Z,101578.28
2022-08-26T01:19:42.345Z,101582.06
2022-08-26T01:23:48.796Z,101589.13
2022-08-26T01:27:52.396Z,101574.13
2022-08-26T01:31:56.686Z,101578.72
2022-08-26T01:35:58.588Z,101584.56
2022-08-26T01:40:00.556Z,101580.16
2022-08-26T01:44:05.083Z,101578.91
2022-08-26T01:48:11.540Z,101585.81
2022-08-26T01:52:18.876Z,101586.44
2022-08-26T01:56:24.595Z,101595.81
2022-08-26T02:00:35.900Z,101591.66
2022-08-26T02:04:43.887Z,101601.25
2022-08-26T02:08:49.142Z,101606.66
2022-08-26T02:12:51.926Z,101589.38
2022-08-26T02:16:54.418Z,101586.84
2022-08-26T02:20:57.118Z,101589.38
2022-08-26T02:25:08.139Z,101582.47
2022-08-26T02:29:20.410Z,101584.13
2022-08-26T02:33:22.978Z,101582.47
2022-08-26T02:37:29.942Z,101594.38
2022-08-26T02:41:32.133Z,101593.72
2022-08-26T02:45:35.140Z,101583.72
2022-08-26T02:49:37.575Z,101596.44
2022-08-26T02:53:39.290Z,101596.44
2022-08-26T02:57:40.890Z,101599.16
2022-08-26T03:01:45.213Z,101591.25
2022-08-26T03:05:47.761Z,101591.84
2022-08-26T03:09:49.660Z,101581.00
2022-08-26T03:13:53.759Z,101588.31
2022-08-26T03:17:55.927Z,101594.56
2022-08-26T03:21:59.395Z,101586.03
2022-08-26T03:26:01.414Z,101586.22
2022-08-26T03:30:23.294Z,101579.34
2022-08-26T03:34:25.075Z,101570.59
2022-08-26T03:38:27.278Z,101573.31
2022-08-26T03:42:29.289Z,101567.88
2022-08-26T03:46:35.396Z,101566.22
2022-08-26T03:50:37.697Z,101566.22
2022-08-26T03:54:40.600Z,101578.91
2022-08-26T03:58:45.936Z,101567.88
2022-08-26T04:02:51.223Z,101571.19
2022-08-26T04:06:59.380Z,101564.75
2022-08-26T04:11:01.276Z,101565.78
2022-08-26T04:15:06.578Z,101561.41
2022-08-26T04:19:09.718Z,101557.03
2022-08-26T04:23:11.563Z,101564.13
2022-08-26T04:27:13.217Z,101559.53
2022-08-26T04:31:16.723Z,101563.28
2022-08-26T04:35:20.924Z,101576.00
2022-08-26T04:39:28.255Z,101572.66
2022-08-26T04:43:30.602Z,101583.50
2022-08-26T04:47:32.567Z,101580.78
2022-08-26T04:51:35.952Z,101579.78
2022-08-26T04:55:42.730Z,101582.50
2022-08-26T04:59:46.778Z,101586.22
2022-08-26T05:03:51.747Z,101581.84
2022-08-26T05:07:53.578Z,101593.69
2022-08-26T05:11:55.219Z,101601.00
2022-08-26T05:16:00.564Z,101596.81
2022-08-26T05:20:04.258Z,101597.88
2022-08-26T05:24:06.145Z,101597.88
2022-08-26T05:28:09.664Z,101602.66
2022-08-26T05:32:11.379Z,101603.28
2022-08-26T05:36:16.299Z,101606.63
2022-08-26T05:40:18.427Z,101602.88
2022-08-26T05:44:22.426Z,101609.13
2022-08-26T05:48:24.507Z,101610.16
2022-08-26T05:52:26.369Z,101619.75
2022-08-26T05:56:28.897Z,101618.91
2022-08-26T06:00:30.457Z,101615.59
2022-08-26T06:04:32.138Z,101613.91
2022-08-26T06:08:34.637Z,101618.91
2022-08-26T06:12:37.441Z,101615.38
2022-08-26T06:16:41.490Z,101623.75
2022-08-26T06:20:53.751Z,101628.78
2022-08-26T06:25:18.552Z,101631.91
2022-08-26T06:29:24.593Z,101641.50
2022-08-26T06:33:28.775Z,101644.22
2022-08-26T06:37:30.343Z,101649.00
2022-08-26T06:41:33.568Z,101662.16
2022-08-26T06:45:35.207Z,101665.91
2022-08-26T06:49:37.208Z,101663.81
2022-08-26T06:53:41.230Z,101665.47
2022-08-26T06:57:42.890Z,101673.59
2022-08-26T07:01:45.114Z,101664.44
2022-08-26T07:05:47.092Z,101675.91
2022-08-26T07:09:52.672Z,101664.66
2022-08-26T07:13:54.442Z,101664.66
2022-08-26T07:17:56.054Z,101670.06
2022-08-26T07:22:02.161Z,101672.59
2022-08-26T07:26:15.231Z,101685.50
2022-08-26T07:30:16.979Z,101687.81
2022-08-26T07:34:18.754Z,101691.16
2022-08-26T07:38:20.458Z,101690.91
2022-08-26T07:42:22.532Z,101701.16
2022-08-26T07:46:27.094Z,101706.78
2022-08-26T07:50:49.309Z,101715.56
2022-08-26T07:54:50.886Z,101701.34
2022-08-26T07:58:53.304Z,101714.28
2022-08-26T08:02:54.932Z,101716.97
2022-08-26T08:06:58.160Z,101721.78
2022-08-26T08:11:01.022Z,101709.06
2022-08-26T08:15:02.678Z,101715.31
2022-08-26T08:19:05.386Z,101723.84
2022-08-26T08:23:07.092Z,101723.44
2022-08-26T08:27:08.955Z,101732.59
2022-08-26T08:31:56.432Z,101739.25
2022-08-26T08:35:59.323Z,101737.59
2022-08-26T08:40:01.196Z,101740.97
2022-08-26T08:44:08.690Z,101733.84
2022-08-26T08:48:33.324Z,101720.09
2022-08-26T08:52:36.408Z,101716.97
2022-08-26T08:56:44.730Z,101713.06
2022-08-26T09:01:01.666Z,101719.34
2022-08-26T09:05:25.543Z,101727.69
2022-08-26T09:09:44.403Z,101726.03
2022-08-26T09:13:55.520Z,101722.91
2022-08-26T09:18:39.361Z,101728.16
2022-08-26T09:22:44.276Z,101724.81
2022-08-26T09:26:48.097Z,101719.38
2022-08-26T09:31:23.594Z,101735.69
2022-08-26T09:35:27.380Z,101738.16
2022-08-26T09:39:34.661Z,101737.75
2022-08-26T09:43:39.529Z,101734.81
2022-08-26T09:47:54.395Z,101729.38
2022-08-26T09:52:22.001Z,101727.28
2022-08-26T09:56:23.543Z,101726.03
2022-08-26T10:00:38.406Z,101725.41
2022-08-26T10:04:40.452Z,101741.84
2022-08-26T10:08:48.919Z,101733.53
2022-08-26T10:13:07.833Z,101735.19
2022-08-26T10:17:09.609Z,101743.53
2022-08-26T10:21:21.072Z,101741.03
2022-08-26T10:25:29.034Z,101748.56
2022-08-26T10:29:39.555Z,101735.00
2022-08-26T10:33:41.619Z,101726.00
2022-08-26T10:37:49.959Z,101731.88
2022-08-26T10:41:57.549Z,101732.28
2022-08-26T10:46:03.566Z,101728.53
2022-08-26T10:50:06.669Z,101735.22
2022-08-26T10:54:21.610Z,101741.28
2022-08-26T10:58:31.937Z,101741.91
2022-08-26T11:02:47.104Z,101746.91
2022-08-26T11:06:50.414Z,101744.19
2022-08-26T11:10:51.989Z,101744.44
2022-08-26T11:14:58.808Z,101747.16
2022-08-26T11:19:00.996Z,101750.06
2022-08-26T11:23:12.475Z,101745.25
2022-08-26T11:27:23.210Z,101748.81
2022-08-26T11:31:25.928Z,101753.41
2022-08-26T11:35:34.464Z,101751.94
2022-08-26T11:39:55.131Z,101756.06
2022-08-26T11:43:59.682Z,101748.50
2022-08-26T11:48:20.950Z,101751.03
2022-08-26T11:52:22.760Z,101747.50
2022-08-26T11:56:33.215Z,101736.88
2022-08-26T12:00:52.816Z,101736.88
2022-08-26T12:04:56.167Z,101743.13
2022-08-26T12:09:02.365Z,101728.91
2022-08-26T12:13:06.255Z,101741.44
2022-08-26T12:17:14.714Z,101738.94
2022-08-26T12:21:24.402Z,101744.13
2022-08-26T20:28:10.929Z,101799.03
2022-08-26T20:32:12.816Z,101786.56
2022-08-26T20:36:15.376Z,101791.97
2022-08-26T20:40:17.408Z,101793.16
2022-08-26T20:44:19.678Z,101794.38
2022-08-26T20:48:21.458Z,101796.25
2022-08-26T20:52:23.139Z,101801.47
2022-08-26T20:56:25.513Z,101787.31
2022-08-26T21:00:28.098Z,101792.03
2022-08-26T21:04:30.568Z,101786.81
2022-08-26T21:08:33.285Z,101790.34
2022-08-26T21:12:35.564Z,101787.66
2022-08-26T21:16:39.006Z,101777.03
2022-08-26T21:20:40.722Z,101785.31
2022-08-26T21:24:42.332Z,101782.00
2022-08-26T21:28:44.543Z,101786.72
2022-08-26T21:32:46.206Z,101785.06
2022-08-26T21:36:48.654Z,101778.00
2022-08-26T21:41:01.193Z,101774.63
2022-08-26T21:45:03.538Z,101781.06
2022-08-26T21:49:08.093Z,101784.13
2022-08-26T21:53:10.570Z,101783.50
2022-08-26T21:57:12.319Z,101785.19
2022-08-26T22:01:17.259Z,101788.25
2022-08-26T22:05:19.036Z,101789.28
2022-08-26T22:09:23.707Z,101791.31
2022-08-26T22:13:29.413Z,101786.94
2022-08-26T22:17:31.141Z,101786.28
2022-08-26T22:21:33.996Z,101790.22
2022-08-26T22:25:35.869Z,101789.38
2022-08-26T22:29:37.886Z,101792.25
2022-08-26T22:33:42.343Z,101788.94
2022-08-26T22:37:43.986Z,101794.50
2022-08-26T22:41:48.553Z,101794.88
2022-08-26T22:45:50.998Z,101797.09
2022-08-26T22:49:52.725Z,101796.63
2022-08-26T22:53:54.398Z,101786.22
2022-08-26T22:57:56.024Z,101782.84
2022-08-26T23:01:57.667Z,101781.34
2022-08-26T23:06:00.188Z,101783.44
2022-08-26T23:10:04.041Z,101785.66
2022-08-26T23:14:06.646Z,101769.47
2022-08-26T23:18:10.091Z,101772.31
2022-08-26T23:22:11.937Z,101777.09
2022-08-26T23:26:17.495Z,101767.84
2022-08-26T23:30:23.265Z,101762.38
2022-08-26T23:34:43.721Z,101762.75
2022-08-26T23:38:52.590Z,101759.59
2022-08-26T23:42:56.855Z,101756.22
2022-08-26T23:46:58.765Z,101758.28
2022-08-26T23:51:19.036Z,101758.63
2022-08-26T23:55:20.984Z,101759.84
2022-08-26T23:59:22.559Z,101756.50
